createdAt,value
2023-04-30T00:20:01.220Z,1.0
2023-04-30T00:30:01.130Z,1.0
2023-04-30T11:05:01.272Z,0.4
2023-04-30T11:15:01.082Z,0.4
2023-04-30T11:25:01.125Z,0.3
2023-04-30T12:10:01.211Z,0.2
2023-04-30T12:15:01.172Z,0.2
2023-04-30T12:25:01.199Z,0.3
2023-04-30T12:30:01.241Z,0.4
2023-04-30T12:35:01.207Z,0.8
2023-04-30T12:45:01.167Z,1.7
2023-04-30T12:50:01.117Z,4.0
2023-04-30T12:55:01.216Z,14.9
2023-04-30T13:15:01.834Z,54.6
2023-04-30T13:20:01.654Z,48.3
2023-04-30T13:25:01.714Z,57.9
2023-04-30T13:30:01.653Z,55.1
2023-04-30T13:35:01.745Z,56.2
2023-04-30T13:40:27.775Z,48.0
2023-04-30T14:00:00.566Z,30.4
2023-04-30T14:05:05.598Z,28.5
2023-04-30T14:15:01.186Z,22.9
2023-04-30T14:20:01.116Z,18.8
2023-04-30T14:25:01.169Z,20.1
2023-04-30T14:30:01.080Z,17.6
2023-04-30T14:35:01.143Z,25.9
2023-04-30T15:00:01.020Z,58.3
2023-04-30T15:05:00.873Z,58.2
2023-04-30T15:10:00.787Z,67.1
2023-04-30T15:15:00.808Z,67.4
2023-04-30T15:20:00.783Z,85.9
2023-04-30T15:25:00.808Z,77.9
2023-04-30T15:30:00.811Z,82.0
2023-04-30T15:35:00.824Z,77.2
2023-04-30T15:40:01.245Z,78.0
2023-04-30T15:45:00.808Z,72.4
2023-04-30T15:50:00.722Z,68.6
2023-04-30T15:55:00.796Z,74.9
2023-04-30T16:00:00.833Z,69.5
2023-04-30T16:05:00.786Z,86.4
2023-04-30T16:10:00.725Z,93.8
2023-04-30T16:15:00.858Z,111.5
2023-04-30T16:20:00.760Z,117.8
2023-04-30T16:25:00.807Z,148.6
2023-04-30T16:30:00.736Z,148.4
2023-04-30T16:35:00.814Z,160.5
2023-04-30T16:40:00.776Z,165.7
2023-04-30T16:45:00.868Z,166.7
2023-04-30T16:50:00.786Z,161.2
2023-04-30T16:55:00.806Z,158.5
2023-04-30T17:00:00.797Z,157.1
2023-04-30T17:05:00.816Z,150.6
2023-04-30T17:10:00.777Z,146.7
2023-04-30T17:15:00.864Z,132.7
2023-04-30T17:20:01.806Z,127.4
2023-04-30T17:25:01.907Z,117.6
2023-04-30T17:30:00.745Z,111.1
2023-04-30T17:35:00.907Z,87.8
2023-04-30T17:40:00.765Z,82.2
2023-04-30T17:45:00.887Z,72.6
2023-04-30T17:50:00.771Z,61.0
2023-04-30T17:55:00.876Z,56.6
2023-04-30T18:00:00.798Z,87.7
2023-04-30T18:05:00.854Z,103.2
2023-04-30T18:10:00.742Z,123.0
2023-04-30T18:15:00.810Z,145.3
2023-04-30T18:20:00.802Z,143.4
2023-04-30T18:25:00.860Z,132.2
2023-04-30T18:30:00.753Z,119.8
2023-04-30T18:35:00.876Z,107.6
2023-04-30T18:40:00.819Z,98.3
2023-04-30T18:45:01.023Z,95.9
2023-04-30T18:50:00.800Z,87.0
2023-04-30T18:55:00.889Z,82.6
2023-04-30T19:00:00.798Z,68.6
2023-04-30T19:05:00.885Z,64.1
2023-04-30T19:10:00.751Z,67.2
2023-04-30T19:15:00.833Z,66.9
2023-04-30T19:20:00.778Z,65.2
2023-04-30T19:25:00.930Z,68.5
2023-04-30T19:30:00.785Z,60.9
2023-04-30T19:35:00.873Z,54.3
2023-04-30T19:40:00.769Z,49.1
2023-04-30T19:45:05.837Z,49.6
2023-04-30T19:50:00.749Z,45.4
2023-04-30T19:55:00.814Z,38.0
2023-04-30T20:00:00.817Z,36.4
2023-04-30T20:05:00.882Z,41.5
2023-04-30T20:10:00.801Z,39.8
2023-04-30T20:15:00.901Z,33.6
2023-04-30T20:20:00.815Z,35.4
2023-04-30T20:25:00.825Z,32.0
2023-04-30T20:30:00.812Z,22.6
2023-04-30T20:35:00.825Z,13.1
2023-04-30T20:40:05.780Z,13.0
2023-04-30T20:45:03.125Z,12.1
2023-04-30T20:50:05.765Z,17.0
2023-04-30T21:00:00.927Z,16.4
2023-04-30T21:05:00.959Z,19.2
2023-04-30T21:10:00.761Z,18.3
2023-04-30T21:15:00.825Z,12.8
2023-04-30T21:20:00.921Z,13.2
2023-04-30T21:25:00.843Z,14.8
2023-04-30T21:30:00.773Z,11.9
2023-04-30T21:35:00.826Z,15.1
2023-04-30T21:40:00.925Z,20.2
2023-04-30T21:45:00.868Z,24.1
2023-04-30T21:50:00.788Z,28.5
2023-04-30T21:55:00.917Z,30.5
2023-04-30T22:00:00.811Z,25.8
2023-04-30T22:05:00.839Z,17.8
2023-04-30T22:10:00.790Z,10.2
2023-04-30T22:15:00.922Z,4.3
2023-04-30T22:20:00.806Z,3.0
2023-04-30T22:30:00.926Z,3.0
2023-04-30T22:35:00.854Z,6.1
2023-04-30T22:40:00.931Z,6.6
2023-04-30T22:45:00.855Z,6.4
2023-04-30T22:50:00.797Z,5.1
2023-04-30T22:55:05.847Z,4.6
2023-04-30T23:15:00.848Z,2.2
2023-04-30T23:20:00.755Z,3.7
2023-04-30T23:25:00.816Z,6.8
2023-04-30T23:30:00.754Z,8.7
2023-04-30T23:35:00.946Z,11.4
2023-04-30T23:40:00.773Z,9.3
2023-04-30T23:45:00.842Z,8.3
2023-04-30T23:50:00.799Z,5.4
2023-04-30T23:55:00.974Z,4.0
